sensor_id;sensor_type;location;lat;lon;timestamp;pressure;altitude;pressure_sealevel;temperature;humidity
68634;BME280;55625;47.072;22.192;2023-05-07T00:00:19;99792.38;;;14.91;89.99
68634;BME280;55625;47.072;22.192;2023-05-07T00:02:46;99798.41;;;14.93;89.92
68634;BME280;55625;47.072;22.192;2023-05-07T00:05:12;99795.06;;;14.95;90.04
68634;BME280;55625;47.072;22.192;2023-05-07T00:07:38;99806.50;;;14.95;90.27
68634;BME280;55625;47.072;22.192;2023-05-07T00:10:05;99818.72;;;14.95;90.55
68634;BME280;55625;47.072;22.192;2023-05-07T00:12:32;99806.97;;;14.93;91.02
68634;BME280;55625;47.072;22.192;2023-05-07T00:15:05;99801.44;;;14.89;90.35
68634;BME280;55625;47.072;22.192;2023-05-07T00:17:33;99794.44;;;14.90;89.80
68634;BME280;55625;47.072;22.192;2023-05-07T00:19:59;99791.13;;;14.92;88.95
68634;BME280;55625;47.072;22.192;2023-05-07T00:22:25;99796.81;;;14.92;88.99
68634;BME280;55625;47.072;22.192;2023-05-07T00:24:51;99789.03;;;14.93;89.06
68634;BME280;55625;47.072;22.192;2023-05-07T00:27:17;99791.41;;;14.94;89.17
68634;BME280;55625;47.072;22.192;2023-05-07T00:29:42;99783.63;;;14.95;89.67
68634;BME280;55625;47.072;22.192;2023-05-07T00:32:08;99777.91;;;14.95;91.14
68634;BME280;55625;47.072;22.192;2023-05-07T00:34:34;99766.84;;;14.87;91.90
68634;BME280;55625;47.072;22.192;2023-05-07T00:37:01;99765.75;;;14.85;92.59
68634;BME280;55625;47.072;22.192;2023-05-07T00:39:27;99761.84;;;14.73;94.12
68634;BME280;55625;47.072;22.192;2023-05-07T00:41:53;99761.84;;;14.73;94.03
68634;BME280;55625;47.072;22.192;2023-05-07T00:44:18;99755.94;;;14.68;94.55
68634;BME280;55625;47.072;22.192;2023-05-07T00:46:45;99763.91;;;14.64;96.06
68634;BME280;55625;47.072;22.192;2023-05-07T00:49:14;99757.41;;;14.63;96.43
68634;BME280;55625;47.072;22.192;2023-05-07T00:51:40;99753.44;;;14.60;96.38
68634;BME280;55625;47.072;22.192;2023-05-07T00:54:06;99759.34;;;14.57;96.38
68634;BME280;55625;47.072;22.192;2023-05-07T00:56:32;99766.78;;;14.54;96.59
68634;BME280;55625;47.072;22.192;2023-05-07T00:58:58;99768.56;;;14.52;96.65
68634;BME280;55625;47.072;22.192;2023-05-07T01:01:24;99776.81;;;14.50;97.24
68634;BME280;55625;47.072;22.192;2023-05-07T01:03:50;99784.09;;;14.51;96.81
68634;BME280;55625;47.072;22.192;2023-05-07T01:06:16;99802.03;;;14.51;97.05
68634;BME280;55625;47.072;22.192;2023-05-07T01:08:43;99805.84;;;14.48;96.81
68634;BME280;55625;47.072;22.192;2023-05-07T01:11:10;99795.53;;;14.42;97.13
68634;BME280;55625;47.072;22.192;2023-05-07T01:13:37;99785.22;;;14.26;98.88
68634;BME280;55625;47.072;22.192;2023-05-07T01:16:04;99805.69;;;14.15;100.00
68634;BME280;55625;47.072;22.192;2023-05-07T01:18:30;99825.84;;;14.12;100.00
68634;BME280;55625;47.072;22.192;2023-05-07T01:20:58;99830.75;;;14.11;100.00
68634;BME280;55625;47.072;22.192;2023-05-07T01:23:26;99832.03;;;14.10;100.00
68634;BME280;55625;47.072;22.192;2023-05-07T01:25:53;99847.09;;;14.11;100.00
68634;BME280;55625;47.072;22.192;2023-05-07T01:28:19;99864.53;;;14.13;100.00
68634;BME280;55625;47.072;22.192;2023-05-07T01:30:54;99849.47;;;14.12;100.00
68634;BME280;55625;47.072;22.192;2023-05-07T01:33:22;99847.88;;;14.11;100.00
68634;BME280;55625;47.072;22.192;2023-05-07T01:35:53;99839.00;;;14.09;100.00
68634;BME280;55625;47.072;22.192;2023-05-07T01:38:21;99829.97;;;14.11;100.00
68634;BME280;55625;47.072;22.192;2023-05-07T01:40:48;99829.97;;;14.11;100.00
68634;BME280;55625;47.072;22.192;2023-05-07T01:43:14;99839.78;;;14.10;100.00
68634;BME280;55625;47.072;22.192;2023-05-07T01:45:40;99842.66;;;14.10;100.00
68634;BME280;55625;47.072;22.192;2023-05-07T01:48:10;99848.81;;;14.08;100.00
68634;BME280;55625;47.072;22.192;2023-05-07T01:50:37;99838.97;;;14.00;100.00
68634;BME280;55625;47.072;22.192;2023-05-07T01:53:04;99832.16;;;13.97;100.00
68634;BME280;55625;47.072;22.192;2023-05-07T01:55:30;99827.41;;;13.94;100.00
68634;BME280;55625;47.072;22.192;2023-05-07T01:57:56;99834.69;;;13.95;100.00
68634;BME280;55625;47.072;22.192;2023-05-07T02:00:22;99833.75;;;13.98;100.00
68634;BME280;55625;47.072;22.192;2023-05-07T02:02:48;99829.63;;;13.99;100.00
68634;BME280;55625;47.072;22.192;2023-05-07T02:05:14;99830.56;;;13.96;100.00
68634;BME280;55625;47.072;22.192;2023-05-07T02:07:40;99831.19;;;14.01;100.00
68634;BME280;55625;47.072;22.192;2023-05-07T02:10:06;99831.19;;;14.01;100.00
68634;BME280;55625;47.072;22.192;2023-05-07T02:12:32;99829.63;;;13.99;100.00
68634;BME280;55625;47.072;22.192;2023-05-07T02:14:58;99832.47;;;13.99;100.00
68634;BME280;55625;47.072;22.192;2023-05-07T02:17:24;99828.03;;;13.98;100.00
68634;BME280;55625;47.072;22.192;2023-05-07T02:19:49;99827.41;;;13.94;100.00
68634;BME280;55625;47.072;22.192;2023-05-07T02:22:15;99816.78;;;13.95;100.00
68634;BME280;55625;47.072;22.192;2023-05-07T02:24:41;99819.78;;;13.91;100.00
68634;BME280;55625;47.072;22.192;2023-05-07T02:27:07;99807.28;;;13.80;100.00
68634;BME280;55625;47.072;22.192;2023-05-07T02:29:33;99807.88;;;13.75;100.00
68634;BME280;55625;47.072;22.192;2023-05-07T02:31:58;99806.59;;;13.66;100.00
68634;BME280;55625;47.072;22.192;2023-05-07T02:34:24;99801.06;;;13.63;100.00
68634;BME280;55625;47.072;22.192;2023-05-07T02:36:50;99789.00;;;13.59;100.00
68634;BME280;55625;47.072;22.192;2023-05-07T02:39:16;99796.13;;;13.54;100.00
68634;BME280;55625;47.072;22.192;2023-05-07T02:41:42;99795.03;;;13.52;100.00
68634;BME280;55625;47.072;22.192;2023-05-07T02:44:08;99791.84;;;13.50;100.00
68634;BME280;55625;47.072;22.192;2023-05-07T02:46:34;99800.22;;;13.44;100.00
68634;BME280;55625;47.072;22.192;2023-05-07T02:49:00;99807.34;;;13.40;100.00
68634;BME280;55625;47.072;22.192;2023-05-07T02:51:26;99798.47;;;13.38;100.00
68634;BME280;55625;47.072;22.192;2023-05-07T02:53:52;99802.56;;;13.36;100.00
68634;BME280;55625;47.072;22.192;2023-05-07T02:56:18;99818.41;;;13.38;100.00
68634;BME280;55625;47.072;22.192;2023-05-07T02:58:44;99814.78;;;13.37;100.00
68634;BME280;55625;47.072;22.192;2023-05-07T03:01:10;99805.28;;;13.40;100.00
68634;BME280;55625;47.072;22.192;2023-05-07T03:03:36;99798.94;;;13.36;100.00
68634;BME280;55625;47.072;22.192;2023-05-07T03:06:02;99806.38;;;13.33;100.00
68634;BME280;55625;47.072;22.192;2023-05-07T03:08:28;99809.69;;;13.32;100.00
68634;BME280;55625;47.072;22.192;2023-05-07T03:10:54;99806.53;;;13.30;100.00
68634;BME280;55625;47.072;22.192;2023-05-07T03:13:20;99812.53;;;13.32;100.00
68634;BME280;55625;47.072;22.192;2023-05-07T03:15:46;99807.63;;;13.32;100.00
68634;BME280;55625;47.072;22.192;2023-05-07T03:18:11;99808.75;;;13.35;100.00
68634;BME280;55625;47.072;22.192;2023-05-07T03:20:37;99808.59;;;13.39;100.00
68634;BME280;55625;47.072;22.192;2023-05-07T03:23:03;99810.97;;;13.40;100.00
68634;BME280;55625;47.072;22.192;2023-05-07T03:25:29;99812.72;;;13.38;100.00
68634;BME280;55625;47.072;22.192;2023-05-07T03:27:57;99829.81;;;13.38;100.00
68634;BME280;55625;47.072;22.192;2023-05-07T03:30:23;99820.31;;;13.41;100.00
68634;BME280;55625;47.072;22.192;2023-05-07T03:32:49;99821.75;;;13.36;100.00
68634;BME280;55625;47.072;22.192;2023-05-07T03:35:15;99841.22;;;13.38;100.00
68634;BME280;55625;47.072;22.192;2023-05-07T03:37:41;99835.38;;;13.41;100.00
68634;BME280;55625;47.072;22.192;2023-05-07T03:40:08;99846.94;;;13.47;100.00
68634;BME280;55625;47.072;22.192;2023-05-07T03:42:35;99848.09;;;13.49;100.00
68634;BME280;55625;47.072;22.192;2023-05-07T03:45:01;99849.47;;;13.45;100.00
68634;BME280;55625;47.072;22.192;2023-05-07T03:47:27;99850.88;;;13.40;100.00
68634;BME280;55625;47.072;22.192;2023-05-07T03:49:53;99855.47;;;13.38;100.00
68634;BME280;55625;47.072;22.192;2023-05-07T03:52:20;99854.22;;;13.39;100.00
68634;BME280;55625;47.072;22.192;2023-05-07T03:54:50;99856.75;;;13.36;100.00
68634;BME280;55625;47.072;22.192;2023-05-07T03:57:16;99859.28;;;13.34;100.00
68634;BME280;55625;47.072;22.192;2023-05-07T03:59:41;99858.31;;;13.38;100.00
68634;BME280;55625;47.072;22.192;2023-05-07T04:02:07;99861.19;;;13.38;100.00
68634;BME280;55625;47.072;22.192;2023-05-07T04:04:33;99856.59;;;13.40;100.00
68634;BME280;55625;47.072;22.192;2023-05-07T04:06:59;99866.25;;;13.43;100.00
68634;BME280;55625;47.072;22.192;2023-05-07T04:09:26;99865.31;;;13.46;100.00
68634;BME280;55625;47.072;22.192;2023-05-07T04:11:51;99861.34;;;13.43;100.00
68634;BME280;55625;47.072;22.192;2023-05-07T04:14:17;99871.16;;;13.42;100.00
68634;BME280;55625;47.072;22.192;2023-05-07T04:16:43;99870.53;;;13.38;100.00
68634;BME280;55625;47.072;22.192;2023-05-07T04:19:09;99860.53;;;13.33;100.00
68634;BME280;55625;47.072;22.192;2023-05-07T04:21:35;99878.75;;;13.36;100.00
68634;BME280;55625;47.072;22.192;2023-05-07T04:24:03;99874.16;;;13.39;100.00
68634;BME280;55625;47.072;22.192;2023-05-07T04:26:29;99890.31;;;13.42;100.00
68634;BME280;55625;47.072;22.192;2023-05-07T04:28:54;99889.88;;;13.43;100.00
68634;BME280;55625;47.072;22.192;2023-05-07T04:31:20;99892.25;;;13.45;100.00
68634;BME280;55625;47.072;22.192;2023-05-07T04:33:46;99906.50;;;13.45;100.00
68634;BME280;55625;47.072;22.192;2023-05-07T04:36:12;99906.16;;;13.43;100.00
68634;BME280;55625;47.072;22.192;2023-05-07T04:38:38;99908.69;;;13.41;100.00
68634;BME280;55625;47.072;22.192;2023-05-07T04:41:06;99907.91;;;13.40;100.00
68634;BME280;55625;47.072;22.192;2023-05-07T04:43:32;99914.41;;;13.41;100.00
68634;BME280;55625;47.072;22.192;2023-05-07T04:45:58;99903.78;;;13.41;100.00
68634;BME280;55625;47.072;22.192;2023-05-07T04:48:24;99908.38;;;13.39;100.00
68634;BME280;55625;47.072;22.192;2023-05-07T04:50:50;99911.22;;;13.39;100.00
68634;BME280;55625;47.072;22.192;2023-05-07T04:53:17;99901.72;;;13.42;100.00
68634;BME280;55625;47.072;22.192;2023-05-07T04:55:44;99909.50;;;13.41;100.00
68634;BME280;55625;47.072;22.192;2023-05-07T04:58:13;99910.13;;;13.45;100.00
68634;BME280;55625;47.072;22.192;2023-05-07T05:00:39;99906.81;;;13.47;100.00
68634;BME280;55625;47.072;22.192;2023-05-07T05:03:07;99909.56;;;13.50;100.00
68634;BME280;55625;47.072;22.192;2023-05-07T05:05:33;99915.91;;;13.54;100.00
68634;BME280;55625;47.072;22.192;2023-05-07T05:07:59;99901.97;;;13.56;100.00
68634;BME280;55625;47.072;22.192;2023-05-07T05:10:24;99909.72;;;13.56;100.00
68634;BME280;55625;47.072;22.192;2023-05-07T05:12:51;99902.75;;;13.57;100.00
68634;BME280;55625;47.072;22.192;2023-05-07T05:15:17;99898.63;;;13.58;100.00
68634;BME280;55625;47.072;22.192;2023-05-07T05:17:43;99905.78;;;13.62;100.00
68634;BME280;55625;47.072;22.192;2023-05-07T05:20:09;99901.97;;;13.65;100.00
68634;BME280;55625;47.072;22.192;2023-05-07T05:22:38;99917.34;;;13.68;100.00
68634;BME280;55625;47.072;22.192;2023-05-07T05:25:05;99923.38;;;13.70;100.00
68634;BME280;55625;47.072;22.192;2023-05-07T05:27:30;99915.16;;;13.72;100.00
68634;BME280;55625;47.072;22.192;2023-05-07T05:29:56;99908.97;;;13.74;100.00
68634;BME280;55625;47.072;22.192;2023-05-07T05:32:22;99907.38;;;13.73;100.00
68634;BME280;55625;47.072;22.192;2023-05-07T05:34:48;99905.00;;;13.71;100.00
68634;BME280;55625;47.072;22.192;2023-05-07T05:37:14;99896.28;;;13.65;100.00
68634;BME280;55625;47.072;22.192;2023-05-07T05:39:40;99897.88;;;13.66;100.00
68634;BME280;55625;47.072;22.192;2023-05-07T05:42:07;99898.66;;;13.67;100.00
68634;BME280;55625;47.072;22.192;2023-05-07T05:44:32;99896.09;;;13.60;100.00
68634;BME280;55625;47.072;22.192;2023-05-07T05:46:58;99894.19;;;13.57;100.00
68634;BME280;55625;47.072;22.192;2023-05-07T05:49:25;99893.72;;;13.58;100.00
68634;BME280;55625;47.072;22.192;2023-05-07T05:51:51;99900.22;;;13.59;100.00
68634;BME280;55625;47.072;22.192;2023-05-07T05:54:17;99894.06;;;13.60;100.00
68634;BME280;55625;47.072;22.192;2023-05-07T05:56:43;99887.88;;;13.62;100.00
68634;BME280;55625;47.072;22.192;2023-05-07T05:59:09;99894.84;;;13.61;100.00
68634;BME280;55625;47.072;22.192;2023-05-07T06:01:35;99891.66;;;13.59;100.00
68634;BME280;55625;47.072;22.192;2023-05-07T06:04:01;99884.38;;;13.58;100.00
68634;BME280;55625;47.072;22.192;2023-05-07T06:06:27;99878.69;;;13.58;100.00
68634;BME280;55625;47.072;22.192;2023-05-07T06:08:53;99877.09;;;13.57;100.00
68634;BME280;55625;47.072;22.192;2023-05-07T06:11:19;99877.88;;;13.57;100.00
68634;BME280;55625;47.072;22.192;2023-05-07T06:13:46;99888.50;;;13.57;100.00
68634;BME280;55625;47.072;22.192;2023-05-07T06:16:12;99895.16;;;13.54;100.00
68634;BME280;55625;47.072;22.192;2023-05-07T06:18:37;99889.75;;;13.56;100.00
68634;BME280;55625;47.072;22.192;2023-05-07T06:21:04;99891.34;;;13.57;100.00
68634;BME280;55625;47.072;22.192;2023-05-07T06:23:30;99896.59;;;13.58;100.00
68634;BME280;55625;47.072;22.192;2023-05-07T06:25:55;99898.97;;;13.60;100.00
68634;BME280;55625;47.072;22.192;2023-05-07T06:28:21;99895.50;;;13.65;100.00
68634;BME280;55625;47.072;22.192;2023-05-07T06:30:47;99896.94;;;13.70;100.00
68634;BME280;55625;47.072;22.192;2023-05-07T06:33:15;99893.44;;;13.75;100.00
68634;BME280;55625;47.072;22.192;2023-05-07T06:35:41;99889.00;;;13.74;100.00
68634;BME280;55625;47.072;22.192;2023-05-07T06:38:07;99882.84;;;13.75;100.00
68634;BME280;55625;47.072;22.192;2023-05-07T06:40:33;99884.28;;;13.80;100.00
68634;BME280;55625;47.072;22.192;2023-05-07T06:42:59;99880.97;;;13.81;100.00
68634;BME280;55625;47.072;22.192;2023-05-07T06:45:25;99882.56;;;13.82;100.00
68634;BME280;55625;47.072;22.192;2023-05-07T06:47:50;99897.16;;;13.93;100.00
68634;BME280;55625;47.072;22.192;2023-05-07T06:50:16;99882.72;;;13.97;100.00
68634;BME280;55625;47.072;22.192;2023-05-07T06:52:42;99885.94;;;14.08;100.00
68634;BME280;55625;47.072;22.192;2023-05-07T06:55:09;99880.38;;;14.14;100.00
68634;BME280;55625;47.072;22.192;2023-05-07T06:57:37;99878.31;;;14.23;100.00
68634;BME280;55625;47.072;22.192;2023-05-07T07:00:04;99886.25;;;14.28;100.00
68634;BME280;55625;47.072;22.192;2023-05-07T07:02:32;99883.84;;;14.36;100.00
68634;BME280;55625;47.072;22.192;2023-05-07T07:04:58;99895.00;;;14.43;100.00
68634;BME280;55625;47.072;22.192;2023-05-07T07:07:24;99890.22;;;14.58;100.00
68634;BME280;55625;47.072;22.192;2023-05-07T07:09:50;99894.66;;;14.78;100.00
68634;BME280;55625;47.072;22.192;2023-05-07T07:12:16;99895.56;;;14.93;100.00
68634;BME280;55625;47.072;22.192;2023-05-07T07:14:42;99898.13;;;14.91;100.00
68634;BME280;55625;47.072;22.192;2023-05-07T07:17:08;99902.09;;;15.03;100.00
68634;BME280;55625;47.072;22.192;2023-05-07T07:19:34;99897.13;;;15.12;100.00
68634;BME280;55625;47.072;22.192;2023-05-07T07:22:00;99904.69;;;15.25;100.00
68634;BME280;55625;47.072;22.192;2023-05-07T07:24:25;99900.88;;;15.37;100.00
68634;BME280;55625;47.072;22.192;2023-05-07T07:26:51;99898.56;;;15.50;100.00
68634;BME280;55625;47.072;22.192;2023-05-07T07:29:17;99897.28;;;15.51;100.00
68634;BME280;55625;47.072;22.192;2023-05-07T07:31:44;99895.03;;;15.55;97.35
68634;BME280;55625;47.072;22.192;2023-05-07T07:34:09;99898.41;;;15.87;96.80
68634;BME280;55625;47.072;22.192;2023-05-07T07:36:35;99898.78;;;16.27;94.63
68634;BME280;55625;47.072;22.192;2023-05-07T07:39:01;99902.63;;;16.63;92.76
68634;BME280;55625;47.072;22.192;2023-05-07T07:41:27;99898.84;;;16.95;91.50
68634;BME280;55625;47.072;22.192;2023-05-07T07:43:53;99878.25;;;17.12;87.91
68634;BME280;55625;47.072;22.192;2023-05-07T07:46:18;99889.44;;;17.24;88.33
68634;BME280;55625;47.072;22.192;2023-05-07T07:48:44;99887.88;;;17.08;88.18
68634;BME280;55625;47.072;22.192;2023-05-07T07:51:10;99883.72;;;17.24;87.61
68634;BME280;55625;47.072;22.192;2023-05-07T07:53:36;99888.25;;;17.46;85.65
68634;BME280;55625;47.072;22.192;2023-05-07T07:56:02;99888.00;;;17.64;85.67
68634;BME280;55625;47.072;22.192;2023-05-07T07:58:28;99893.75;;;17.79;82.48
68634;BME280;55625;47.072;22.192;2023-05-07T08:00:54;99879.81;;;17.92;83.51
68634;BME280;55625;47.072;22.192;2023-05-07T08:03:21;99884.56;;;17.95;83.20
68634;BME280;55625;47.072;22.192;2023-05-07T08:05:48;99879.31;;;17.93;84.42
68634;BME280;55625;47.072;22.192;2023-05-07T08:08:15;99874.44;;;17.99;85.40
68634;BME280;55625;47.072;22.192;2023-05-07T08:10:41;99873.72;;;18.25;83.76
68634;BME280;55625;47.072;22.192;2023-05-07T08:13:07;99877.09;;;18.64;81.54
68634;BME280;55625;47.072;22.192;2023-05-07T08:15:33;99876.97;;;18.99;80.34
68634;BME280;55625;47.072;22.192;2023-05-07T08:17:59;99883.97;;;19.24;78.82
68634;BME280;55625;47.072;22.192;2023-05-07T08:20:28;99866.25;;;19.31;78.00
68634;BME280;55625;47.072;22.192;2023-05-07T08:22:55;99871.63;;;19.18;79.82
68634;BME280;55625;47.072;22.192;2023-05-07T08:25:21;99874.25;;;19.21;79.81
68634;BME280;55625;47.072;22.192;2023-05-07T08:27:46;99874.16;;;19.10;80.17
68634;BME280;55625;47.072;22.192;2023-05-07T08:30:13;99875.16;;;19.02;79.34
68634;BME280;55625;47.072;22.192;2023-05-07T08:32:39;99879.84;;;18.99;79.27
68634;BME280;55625;47.072;22.192;2023-05-07T08:35:05;99884.78;;;18.99;80.09
68634;BME280;55625;47.072;22.192;2023-05-07T08:37:31;99882.25;;;19.06;76.43
68634;BME280;55625;47.072;22.192;2023-05-07T08:39:57;99882.84;;;19.16;74.59
68634;BME280;55625;47.072;22.192;2023-05-07T08:42:23;99880.06;;;19.27;70.41
68634;BME280;55625;47.072;22.192;2023-05-07T08:44:51;99886.41;;;19.31;70.93
68634;BME280;55625;47.072;22.192;2023-05-07T08:47:23;99880.16;;;19.38;68.03
68634;BME280;55625;47.072;22.192;2023-05-07T08:49:53;99878.09;;;19.39;67.02
68634;BME280;55625;47.072;22.192;2023-05-07T08:52:20;99887.00;;;19.72;70.44
68634;BME280;55625;47.072;22.192;2023-05-07T08:54:46;99876.31;;;20.27;68.52
68634;BME280;55625;47.072;22.192;2023-05-07T08:57:13;99875.94;;;20.67;67.75
68634;BME280;55625;47.072;22.192;2023-05-07T08:59:40;99876.81;;;21.01;64.67
68634;BME280;55625;47.072;22.192;2023-05-07T09:02:09;99872.91;;;21.32;63.72
68634;BME280;55625;47.072;22.192;2023-05-07T09:04:35;99875.28;;;21.56;62.90
68634;BME280;55625;47.072;22.192;2023-05-07T09:07:01;99875.78;;;21.83;62.10
68634;BME280;55625;47.072;22.192;2023-05-07T09:09:33;99877.84;;;21.93;58.58
68634;BME280;55625;47.072;22.192;2023-05-07T09:11:59;99881.28;;;21.69;57.79
68634;BME280;55625;47.072;22.192;2023-05-07T09:14:25;99875.53;;;21.58;58.37
68634;BME280;55625;47.072;22.192;2023-05-07T09:16:54;99872.13;;;21.37;59.99
68634;BME280;55625;47.072;22.192;2023-05-07T09:19:24;99871.59;;;21.17;60.34
68634;BME280;55625;47.072;22.192;2023-05-07T09:22:01;99865.31;;;21.24;60.59
68634;BME280;55625;47.072;22.192;2023-05-07T09:24:28;99863.22;;;21.52;60.85
68634;BME280;55625;47.072;22.192;2023-05-07T09:26:59;99854.41;;;22.02;61.82
68634;BME280;55625;47.072;22.192;2023-05-07T09:29:27;99864.28;;;22.46;58.98
68634;BME280;55625;47.072;22.192;2023-05-07T09:31:56;99855.25;;;22.67;58.24
68634;BME280;55625;47.072;22.192;2023-05-07T09:34:22;99864.84;;;22.91;56.67
68634;BME280;55625;47.072;22.192;2023-05-07T09:36:47;99864.19;;;23.10;56.60
68634;BME280;55625;47.072;22.192;2023-05-07T09:39:14;99859.28;;;22.99;58.77
68634;BME280;55625;47.072;22.192;2023-05-07T09:41:47;99860.75;;;22.65;58.99
68634;BME280;55625;47.072;22.192;2023-05-07T09:44:14;99864.06;;;22.39;58.43
68634;BME280;55625;47.072;22.192;2023-05-07T09:46:43;99865.84;;;22.47;58.75
68634;BME280;55625;47.072;22.192;2023-05-07T09:49:23;99859.34;;;22.36;56.85
68634;BME280;55625;47.072;22.192;2023-05-07T09:51:51;99861.50;;;22.18;54.07
68634;BME280;55625;47.072;22.192;2023-05-07T09:54:18;99862.75;;;22.34;55.11
68634;BME280;55625;47.072;22.192;2023-05-07T09:56:45;99866.94;;;22.44;55.94
68634;BME280;55625;47.072;22.192;2023-05-07T09:59:16;99860.00;;;22.58;54.39
68634;BME280;55625;47.072;22.192;2023-05-07T10:01:43;99858.59;;;22.76;55.09
68634;BME280;55625;47.072;22.192;2023-05-07T10:04:11;99852.41;;;23.02;55.62
68634;BME280;55625;47.072;22.192;2023-05-07T10:06:37;99856.63;;;23.01;52.40
68634;BME280;55625;47.072;22.192;2023-05-07T10:09:04;99848.75;;;23.32;53.93
68634;BME280;55625;47.072;22.192;2023-05-07T10:11:33;99856.72;;;23.56;54.33
68634;BME280;55625;47.072;22.192;2023-05-07T10:14:00;99849.50;;;23.68;54.47
68634;BME280;55625;47.072;22.192;2023-05-07T10:16:34;99847.03;;;23.77;50.27
68634;BME280;55625;47.072;22.192;2023-05-07T10:19:06;99843.75;;;23.87;51.61
68634;BME280;55625;47.072;22.192;2023-05-07T10:21:44;99844.56;;;23.63;50.86
68634;BME280;55625;47.072;22.192;2023-05-07T10:24:26;99843.16;;;23.69;56.48
68634;BME280;55625;47.072;22.192;2023-05-07T10:26:53;99843.75;;;24.11;54.38
68634;BME280;55625;47.072;22.192;2023-05-07T10:35:03;99834.69;;;24.20;52.23
68634;BME280;55625;47.072;22.192;2023-05-07T10:37:31;99834.59;;;24.50;53.23
68634;BME280;55625;47.072;22.192;2023-05-07T10:39:57;99829.94;;;24.41;51.00
68634;BME280;55625;47.072;22.192;2023-05-07T10:42:23;99834.34;;;24.29;51.12
68634;BME280;55625;47.072;22.192;2023-05-07T10:44:49;99835.75;;;24.17;49.27
68634;BME280;55625;47.072;22.192;2023-05-07T10:47:17;99840.91;;;24.05;51.24
68634;BME280;55625;47.072;22.192;2023-05-07T10:52:20;99824.91;;;23.99;47.44
68634;BME280;55625;47.072;22.192;2023-05-07T10:54:46;99827.06;;;24.17;51.59
68634;BME280;55625;47.072;22.192;2023-05-07T10:57:34;99841.88;;;24.38;53.64
68634;BME280;55625;47.072;22.192;2023-05-07T11:00:03;99836.44;;;24.04;48.54
68634;BME280;55625;47.072;22.192;2023-05-07T11:03:14;99831.03;;;24.38;46.54
68634;BME280;55625;47.072;22.192;2023-05-07T11:05:41;99820.31;;;24.33;47.03
68634;BME280;55625;47.072;22.192;2023-05-07T11:08:08;99832.22;;;24.30;45.87
68634;BME280;55625;47.072;22.192;2023-05-07T11:10:57;99824.94;;;24.61;49.46
68634;BME280;55625;47.072;22.192;2023-05-07T11:13:48;99823.28;;;24.84;47.68
68634;BME280;55625;47.072;22.192;2023-05-07T11:16:23;99829.69;;;24.77;43.07
68634;BME280;55625;47.072;22.192;2023-05-07T11:18:54;99833.09;;;24.81;49.04
68634;BME280;55625;47.072;22.192;2023-05-07T11:21:38;99826.50;;;24.99;47.61
68634;BME280;55625;47.072;22.192;2023-05-07T11:24:07;99820.97;;;25.15;46.86
68634;BME280;55625;47.072;22.192;2023-05-07T11:26:49;99832.41;;;25.26;46.89
68634;BME280;55625;47.072;22.192;2023-05-07T11:29:18;99816.78;;;25.29;47.87
68634;BME280;55625;47.072;22.192;2023-05-07T11:31:49;99812.81;;;25.58;45.91
68634;BME280;55625;47.072;22.192;2023-05-07T11:34:25;99816.88;;;25.68;45.62
68634;BME280;55625;47.072;22.192;2023-05-07T11:36:52;99818.84;;;25.47;45.21
68634;BME280;55625;47.072;22.192;2023-05-07T11:39:32;99815.88;;;25.34;45.75
68634;BME280;55625;47.072;22.192;2023-05-07T11:42:02;99815.19;;;25.28;45.64
68634;BME280;55625;47.072;22.192;2023-05-07T11:44:46;99817.84;;;24.94;44.97
68634;BME280;55625;47.072;22.192;2023-05-07T11:47:20;99815.41;;;24.79;48.28
68634;BME280;55625;47.072;22.192;2023-05-07T11:49:52;99826.97;;;24.85;49.22
68634;BME280;55625;47.072;22.192;2023-05-07T11:52:21;99825.00;;;24.93;46.41
68634;BME280;55625;47.072;22.192;2023-05-07T11:54:55;99820.31;;;24.71;47.62
68634;BME280;55625;47.072;22.192;2023-05-07T11:57:25;99821.50;;;24.81;47.91
68634;BME280;55625;47.072;22.192;2023-05-07T11:59:56;99818.81;;;24.83;49.35
68634;BME280;55625;47.072;22.192;2023-05-07T12:02:24;99808.53;;;24.82;47.14
68634;BME280;55625;47.072;22.192;2023-05-07T12:04:54;99806.56;;;24.90;48.73
68634;BME280;55625;47.072;22.192;2023-05-07T12:07:20;99802.63;;;24.88;48.00
68634;BME280;55625;47.072;22.192;2023-05-07T12:09:47;99807.84;;;24.38;48.26
68634;BME280;55625;47.072;22.192;2023-05-07T12:12:14;99804.78;;;24.50;49.41
68634;BME280;55625;47.072;22.192;2023-05-07T12:14:45;99796.66;;;23.80;48.79
68634;BME280;55625;47.072;22.192;2023-05-07T12:17:13;99801.19;;;24.00;49.43
68634;BME280;55625;47.072;22.192;2023-05-07T12:19:42;99805.09;;;24.03;49.45
68634;BME280;55625;47.072;22.192;2023-05-07T12:22:08;99792.91;;;23.85;47.45
68634;BME280;55625;47.072;22.192;2023-05-07T12:24:49;99791.53;;;24.11;46.07
68634;BME280;55625;47.072;22.192;2023-05-07T12:27:16;99785.03;;;24.05;47.06
68634;BME280;55625;47.072;22.192;2023-05-07T12:29:50;99786.41;;;24.23;47.34
68634;BME280;55625;47.072;22.192;2023-05-07T12:32:21;99782.75;;;23.98;46.59
68634;BME280;55625;47.072;22.192;2023-05-07T12:34:50;99775.41;;;23.72;47.31
68634;BME280;55625;47.072;22.192;2023-05-07T12:37:17;99779.50;;;23.82;46.77
68634;BME280;55625;47.072;22.192;2023-05-07T12:39:49;99766.25;;;23.68;47.42
68634;BME280;55625;47.072;22.192;2023-05-07T12:42:18;99761.75;;;23.92;49.33
68634;BME280;55625;47.072;22.192;2023-05-07T12:44:46;99763.63;;;24.32;48.90
68634;BME280;55625;47.072;22.192;2023-05-07T12:47:12;99761.66;;;24.59;49.46
68634;BME280;55625;47.072;22.192;2023-05-07T12:49:38;99764.34;;;24.89;46.61
68634;BME280;55625;47.072;22.192;2023-05-07T12:52:05;99760.00;;;24.64;45.42
68634;BME280;55625;47.072;22.192;2023-05-07T12:54:34;99749.03;;;24.38;46.12